ADDS METAR Data INFO
IDs: Format: Raw Decoded Include TAF

Data at: 2301 UTC 16 Jan 2018

KMEM 162254Z 32009KT 10SM CLR M10/M17 A3066 RMK AO2 SLP386 T11001167 $
KMEM 162154Z 31011KT 10SM FEW030 M09/M16 A3065 RMK AO2 SLP386 T10941156 $
KMEM 162054Z 34009KT 10SM FEW030 M09/M16 A3064 RMK AO2 SLP380 T10891156 56010 $
KMEM 161954Z 32008KT 10SM FEW028 M09/M15 A3064 RMK AO2 SLP382 T10891150 $
KMEM 161854Z 33009KT 10SM FEW028 FEW065 M09/M16 A3065 RMK AO2 SLP383 T10891156 $
KMEM 161754Z COR 31012KT 10SM FEW028 SCT065 M09/M16 A3067 RMK AO2 SLP389 4/002 933003 60000 T10941161 11089 21106 58006 $
KMEM 161654Z 33012G18KT 10SM FEW045 SCT065 M10/M16 A3070 RMK AO2 SLP399 T11001156 $
KMEM 161554Z 36009KT 10SM FEW017 SCT047 BKN070 M11/M16 A3070 RMK AO2 SLP400 T11061161 $
KMEM 161454Z 36014KT 10SM FEW017 SCT047 BKN065 M09/M15 A3069 RMK AO2 SLP395 60000 T10941150 51018 $
KMEM 161354Z 35011KT 10SM SCT047 BKN060 M09/M15 A3067 RMK AO2 SNE21 SLP389 P0000 T10941150 $
KMEM 161322Z 35009KT 8SM FEW017 BKN047 OVC075 M09/M14 A3066 RMK AO2 SNE21 P0000 T10891139 $
KMEM 161254Z 36013KT 7SM -SN SCT017 BKN038 OVC070 M09/M13 A3065 RMK AO2 SLP382 P0000 T10941128 $
KMEM 161245Z 35010KT 4SM -SN SCT017 BKN030 OVC070 M09/M13 A3065 RMK AO2 P0000 T10941128 $
KMEM 161226Z 36012KT 3SM -SN SCT013 SCT018 OVC026 M09/M12 A3064 RMK AO2 P0000 T10941122 $
KMEM 161154Z 35012KT 1 3/4SM -SN BKN016 OVC021 M09/M12 A3063 RMK AO2 SLP376 SNINCR 1/2 4/002 P0001 60007 70010 T10941122 11033 21094 53020 $
KMEM 161054Z 01011KT 1 1/2SM -SN BR OVC022 M09/M11 A3061 RMK AO2 SLP367 P0002 T10891111 $
KMEM 160954Z 36014KT 1 3/4SM -SN SCT008 OVC018 M08/M11 A3059 RMK AO2 SLP363 P0001 T10781106 $
KMEM 160928Z 35013KT 1 3/4SM -SN BR SCT009 OVC015 M07/M09 A3059 RMK AO2 P0000 T10721094 $
KMEM 160903Z 36011KT 1 3/4SM -SN BR FEW011 OVC020 M07/M09 A3058 RMK AO2 P0000 T10671089 $
KMEM 160854Z 36012KT 2 1/2SM -SN BR SCT014 OVC036 M07/M09 A3057 RMK AO2 SLP356 P0002 60003 T10671089 51022 $
KMEM 160810Z 35012KT 3SM -SN BR FEW014 OVC032 M07/M09 A3055 RMK AO2 P0001 T10671089 $
KMEM 160754Z 01012KT 2 1/2SM -SN BR OVC029 M07/M08 A3056 RMK AO2 SLP350 P0001 T10671083 $
KMEM 160723Z 36012G22KT 3SM -SN SCT013 BKN024 OVC060 M06/M09 A3055 RMK AO2 P0000 T10611089 $
KMEM 160654Z 36016G22KT 5SM -SN BR BKN012 OVC060 M06/M08 A3053 RMK AO2 SLP341 P0000 T10561078 $
KMEM 160611Z 01018KT 6SM -SN BKN014 OVC049 M04/M07 A3052 RMK AO2 P0000 T10391067 $
KMEM 160554Z COR 35013G21KT 9SM -SN SCT015 OVC049 M03/M06 A3051 RMK AO2 UPB54SNE54 SLP332 P0001 60003 T10331056 10028 21033 400671044 51012 $
KMEM 160540Z 35010KT 5SM -SN BR SCT013 SCT027 OVC047 M03/M05 A3050 RMK AO2 P0000 T10331050 $
KMEM 160522Z 35016G24KT 3SM -SN BR SCT009 BKN015 OVC047 M03/M06 A3050 RMK AO2 P0000 T10331056 $
KMEM 160519Z 35015G24KT 2 1/2SM -SN BR BKN009 BKN013 OVC028 M03/M05 A3050 RMK AO2 P0000 T10331050 $
KMEM 160507Z 35016G23KT 2SM -SN BR BKN011 OVC014 M03/M05 A3050 RMK AO2 CIG 008V013 P0000 T10281050 $
KMEM 160454Z 35014G20KT 5SM -SN BR BKN013 BKN018 OVC044 M02/M04 A3050 RMK AO2 SLP331 P0000 T10221044 $
KMEM 160421Z 36017G24KT 5SM -SN BR BKN014 OVC020 M02/M04 A3049 RMK AO2 P0000 T10171039 $
KMEM 160403Z 01010KT 2 1/2SM -SN BR SCT009 BKN014 OVC020 M01/M03 A3048 RMK AO2 P0000 T10111028 $
KMEM 160354Z 36009KT 2SM -SN BR SCT011 BKN014 OVC031 M01/M03 A3048 RMK AO2 SLP325 P0001 T10111028 $
KMEM 160350Z 36008KT 2SM -SN BR BKN011 OVC031 M01/M03 A3048 RMK AO2 P0001 $
KMEM 160336Z 34011KT 3SM -SN BR SCT008 SCT013 OVC031 M01/M02 A3049 RMK AO2 P0000 T10111022 $
KMEM 160330Z 35007KT 2 1/2SM -SN BR SCT008 BKN013 OVC029 M01/M02 A3048 RMK AO2 P0000 T10111022 $
KMEM 160320Z 34008KT 2SM -SN BR BKN008 OVC030 M01/M02 A3048 RMK AO2 P0000 T10111022 $
KMEM 160313Z 35007KT 2 1/2SM -SN BR SCT008 BKN032 OVC049 M01/M02 A3048 RMK AO2 P0000 T10061022 $
KMEM 160254Z 35008KT 5SM -SN BR FEW011 BKN039 OVC049 M01/M02 A3047 RMK AO2 UPB11E15SNB15 SLP321 P0000 60001 T10061022 50012 $
KMEM 160252Z 34008KT 5SM -SN BR FEW011 BKN039 OVC049 M01/M02 A3048 RMK AO2 UPB11E15SNB15 P0000 $
KMEM 160231Z 01014KT 9SM -SN SCT011 BKN017 OVC049 00/M02 A3046 RMK AO2 UPB11E15SNB15 P0000 T00001017 $
KMEM 160215Z 02015G20KT 9SM -SN BKN013 OVC050 01/M01 A3045 RMK AO2 UPB11E15SNB15 P0000 T00061011 $
KMEM 160207Z 36012KT 10SM SCT011 BKN018 OVC050 01/M01 A3046 RMK AO2 T00111011 $
KMEM 160154Z 36008KT 10SM SCT011 OVC055 01/M01 A3045 RMK AO2 PLE25 SLP314 P0000 T00111011 $
KMEM 160148Z 01008KT 10SM FEW011 FEW039 OVC055 01/M01 A3044 RMK AO2 PLE25 P0000 $
KMEM 160125Z 36008KT 10SM BKN039 OVC050 01/M01 A3043 RMK AO2 PLE25 P0000 T00111011 $
KMEM 160054Z 36009KT 10SM -PL OVC043 02/M02 A3044 RMK AO2 UPB2356E18PLB18 SLP309 P0001 T00171017 $
KMEM 160019Z 35009KT 10SM -PL OVC044 02/M02 A3042 RMK AO2 UPB2356E18PLB18 P0000 T00221017 $
KMEM 152354Z AUTO 02012KT 10SM OVC042 03/M02 A3040 RMK AO2 SLP297 T00281022 10067 20028 53011 $
KMEM 152254Z 01010KT 10SM OVC050 03/M02 A3037 RMK AO2 SLP287 T00331017 $
KMEM 152154Z 32008KT 10SM BKN043 BKN080 OVC200 04/M02 A3037 RMK AO2 SLP288 T00391017 $
KMEM 152125Z 33007KT 10SM BKN041 BKN080 04/M02 A3037 RMK AO2 T00441017 $
KMEM 152054Z 33006KT 10SM BKN039 BKN080 BKN200 04/M03 A3037 RMK AO2 SLP285 T00441028 55005 $
KMEM 152025Z 33009KT 10SM SCT041 BKN080 BKN200 06/M02 A3036 RMK AO2 T00561022 $
KMEM 151954Z 33007KT 10SM FEW080 SCT200 07/M02 A3035 RMK AO2 SLP279 T00671022 $
KMEM 151854Z 27008KT 10SM FEW080 BKN200 06/M02 A3035 RMK AO2 SLP281 T00611022 $
KMEM 151754Z VRB05KT 10SM FEW080 SCT200 06/M03 A3038 RMK AO2 SLP290 T00561028 10056 21044 58005 $
KMEM 151654Z 27008KT 10SM SCT080 BKN200 05/M03 A3040 RMK AO2 SLP297 T00501033 $
KMEM 151554Z 22005KT 10SM SCT080 BKN200 03/M04 A3041 RMK AO2 SLP298 T00281044 $
KMEM 151454Z 22006KT 10SM FEW100 BKN200 M01/M05 A3040 RMK AO2 SLP296 T10061050 53012 $
KMEM 151354Z 18003KT 10SM FEW100 SCT150 M02/M06 A3036 RMK AO2 SLP285 T10221056 $
KMEM 151254Z 18006KT 10SM FEW065 SCT150 M04/M06 A3037 RMK AO2 SLP286 T10391061 $
KMEM 151154Z 18005KT 10SM FEW060 FEW150 M04/M07 A3036 RMK AO2 SLP284 T10441067 11028 21044 55007 $